createdAt,value
2024-01-05T00:02:14.725Z,100.00
2024-01-05T00:04:43.070Z,100.00
2024-01-05T00:07:12.586Z,100.00
2024-01-05T00:09:40.916Z,100.00
2024-01-05T00:12:09.373Z,100.00
2024-01-05T00:14:39.200Z,100.00
2024-01-05T00:17:07.481Z,100.00
2024-01-05T00:19:36.082Z,100.00
2024-01-05T00:22:04.717Z,100.00
2024-01-05T00:24:33.162Z,100.00
2024-01-05T00:27:01.732Z,100.00
2024-01-05T00:29:30.691Z,100.00
2024-01-05T00:31:58.831Z,100.00
2024-01-05T00:34:27.208Z,100.00
2024-01-05T00:36:55.667Z,100.00
2024-01-05T00:39:23.905Z,100.00
2024-01-05T00:41:52.132Z,100.00
2024-01-05T00:44:21.829Z,100.00
2024-01-05T00:46:50.058Z,100.00
2024-01-05T00:49:18.338Z,100.00
2024-01-05T00:51:47.260Z,100.00
2024-01-05T00:54:15.547Z,100.00
2024-01-05T00:56:44.083Z,100.00
2024-01-05T00:59:13.456Z,100.00
2024-01-05T01:01:41.792Z,100.00
2024-01-05T01:04:10.149Z,100.00
2024-01-05T01:06:38.564Z,100.00
2024-01-05T01:09:06.920Z,100.00
2024-01-05T01:11:35.248Z,100.00
2024-01-05T01:14:03.473Z,100.00
2024-01-05T01:16:32.796Z,100.00
2024-01-05T01:19:01.536Z,100.00
2024-01-05T01:21:29.917Z,100.00
2024-01-05T01:23:58.103Z,100.00
2024-01-05T01:26:26.381Z,100.00
2024-01-05T01:28:54.620Z,100.00
2024-01-05T01:31:23.085Z,100.00
2024-01-05T01:33:51.424Z,100.00
2024-01-05T01:36:19.707Z,100.00
2024-01-05T01:38:47.885Z,100.00
2024-01-05T01:41:16.106Z,100.00
2024-01-05T01:43:52.938Z,100.00
2024-01-05T01:46:23.418Z,100.00
2024-01-05T01:48:53.070Z,100.00
2024-01-05T01:51:21.552Z,100.00
2024-01-05T01:53:50.484Z,100.00
2024-01-05T01:56:18.970Z,100.00
2024-01-05T01:58:47.602Z,100.00
2024-01-05T02:01:16.037Z,100.00
2024-01-05T02:03:45.268Z,100.00
2024-01-05T02:06:13.689Z,100.00
2024-01-05T02:08:41.861Z,100.00
2024-01-05T02:11:10.096Z,100.00
2024-01-05T02:13:38.322Z,100.00
2024-01-05T02:16:06.956Z,100.00
2024-01-05T02:18:35.267Z,100.00
2024-01-05T02:21:05.128Z,100.00
2024-01-05T02:23:33.523Z,100.00
2024-01-05T02:26:02.194Z,100.00
2024-01-05T02:28:30.450Z,100.00
2024-01-05T02:30:58.870Z,100.00
2024-01-05T02:33:27.445Z,100.00
2024-01-05T02:35:55.850Z,100.00
2024-01-05T02:38:24.149Z,100.00
2024-01-05T02:40:52.466Z,100.00
2024-01-05T02:43:20.682Z,100.00
2024-01-05T02:45:48.902Z,100.00
2024-01-05T02:48:17.271Z,100.00
2024-01-05T02:50:45.671Z,100.00
2024-01-05T02:53:13.859Z,100.00
2024-01-05T02:55:42.083Z,100.00
2024-01-05T02:58:10.402Z,100.00
2024-01-05T03:00:38.859Z,100.00
2024-01-05T03:03:07.351Z,100.00
2024-01-05T03:05:35.765Z,100.00
2024-01-05T03:08:04.593Z,100.00
2024-01-05T03:10:32.820Z,100.00
2024-01-05T03:13:01.045Z,100.00
2024-01-05T03:15:29.413Z,100.00
2024-01-05T03:17:58.078Z,100.00
2024-01-05T03:20:26.393Z,100.00
2024-01-05T03:22:54.620Z,100.00
2024-01-05T03:25:22.826Z,100.00
2024-01-05T03:27:50.948Z,100.00
2024-01-05T03:30:19.366Z,100.00
2024-01-05T03:32:47.898Z,100.00
2024-01-05T03:35:16.214Z,100.00
2024-01-05T03:37:44.432Z,100.00
2024-01-05T03:40:12.661Z,100.00
2024-01-05T03:42:40.893Z,100.00
2024-01-05T03:45:09.755Z,100.00
2024-01-05T03:47:37.979Z,100.00
2024-01-05T03:50:07.149Z,100.00
2024-01-05T03:52:36.264Z,100.00
2024-01-05T03:55:05.144Z,100.00
2024-01-05T03:57:33.319Z,100.00
2024-01-05T04:00:02.150Z,100.00
2024-01-05T04:02:33.440Z,100.00
2024-01-05T04:05:01.741Z,100.00
2024-01-05T04:07:30.006Z,100.00
2024-01-05T04:09:58.227Z,100.00
2024-01-05T04:12:26.627Z,100.00
2024-01-05T04:14:54.912Z,100.00
2024-01-05T04:17:23.193Z,100.00
2024-01-05T04:19:51.493Z,100.00
2024-01-05T04:22:19.730Z,100.00
2024-01-05T04:24:47.951Z,100.00
2024-01-05T04:27:16.478Z,100.00
2024-01-05T04:29:44.691Z,100.00
2024-01-05T04:32:12.922Z,100.00
2024-01-05T04:34:41.320Z,100.00
2024-01-05T04:37:10.150Z,100.00
2024-01-05T04:39:38.427Z,100.00
2024-01-05T04:42:06.960Z,100.00
2024-01-05T04:44:35.417Z,100.00
2024-01-05T04:47:03.948Z,100.00
2024-01-05T04:49:34.323Z,100.00
2024-01-05T04:52:03.299Z,100.00
2024-01-05T04:54:31.640Z,100.00
2024-01-05T04:57:00.535Z,100.00
2024-01-05T04:59:28.854Z,100.00
2024-01-05T05:01:57.281Z,100.00
2024-01-05T05:04:25.545Z,100.00
2024-01-05T05:06:54.812Z,100.00
2024-01-05T05:09:23.037Z,100.00
2024-01-05T05:11:51.261Z,100.00
2024-01-05T05:14:19.484Z,100.00
2024-01-05T05:16:47.902Z,100.00
2024-01-05T05:19:16.277Z,100.00
2024-01-05T05:21:44.828Z,100.00
2024-01-05T05:24:13.626Z,100.00
2024-01-05T05:26:43.100Z,100.00
2024-01-05T05:29:11.313Z,100.00
2024-01-05T05:31:39.573Z,100.00
2024-01-05T05:34:07.931Z,100.00
2024-01-05T05:36:36.844Z,100.00
2024-01-05T05:39:05.156Z,100.00
2024-01-05T05:41:33.412Z,100.00
2024-01-05T05:44:01.634Z,100.00
2024-01-05T05:46:29.853Z,100.00
2024-01-05T05:48:58.190Z,100.00
2024-01-05T05:51:26.604Z,100.00
2024-01-05T05:53:54.865Z,100.00
2024-01-05T05:56:23.136Z,100.00
2024-01-05T05:58:51.355Z,100.00
2024-01-05T06:01:19.622Z,100.00
2024-01-05T06:03:47.897Z,100.00
2024-01-05T06:06:24.770Z,100.00
2024-01-05T06:08:53.435Z,100.00
2024-01-05T06:11:22.347Z,100.00
2024-01-05T06:13:50.516Z,100.00
2024-01-05T06:16:18.622Z,100.00
2024-01-05T06:18:46.873Z,100.00
2024-01-05T06:21:16.083Z,100.00
2024-01-05T06:23:44.704Z,100.00
2024-01-05T06:26:12.929Z,100.00
2024-01-05T06:28:41.236Z,100.00
2024-01-05T06:31:10.577Z,100.00
2024-01-05T06:33:39.004Z,100.00
2024-01-05T06:36:08.245Z,100.00
2024-01-05T06:38:36.449Z,100.00
2024-01-05T06:41:05.697Z,100.00
2024-01-05T06:43:33.873Z,100.00
2024-01-05T06:46:02.085Z,100.00
2024-01-05T06:48:30.778Z,100.00
2024-01-05T06:50:59.316Z,100.00
2024-01-05T06:53:30.199Z,100.00
2024-01-05T06:55:58.579Z,100.00
2024-01-05T06:58:28.943Z,100.00
2024-01-05T07:00:58.276Z,100.00
2024-01-05T07:03:26.692Z,100.00
2024-01-05T07:05:54.983Z,100.00
2024-01-05T07:08:23.202Z,100.00
2024-01-05T07:10:51.531Z,100.00
2024-01-05T07:13:19.750Z,100.00
2024-01-05T07:15:47.877Z,100.00
2024-01-05T07:18:16.413Z,100.00
2024-01-05T07:20:44.696Z,100.00
2024-01-05T07:23:12.820Z,100.00
2024-01-05T07:25:41.044Z,100.00
2024-01-05T07:28:09.768Z,100.00
2024-01-05T07:30:38.769Z,100.00
2024-01-05T07:33:07.382Z,100.00
2024-01-05T07:35:35.753Z,100.00
2024-01-05T07:38:05.161Z,100.00
2024-01-05T07:40:33.371Z,100.00
2024-01-05T07:43:01.597Z,100.00
2024-01-05T07:45:29.815Z,100.00
2024-01-05T07:47:59.822Z,100.00
2024-01-05T07:50:28.363Z,100.00
2024-01-05T07:52:56.588Z,100.00
2024-01-05T07:55:25.001Z,100.00
2024-01-05T07:57:53.502Z,100.00
2024-01-05T08:00:22.128Z,99.90
2024-01-05T08:02:51.019Z,99.26
2024-01-05T08:05:19.472Z,98.85
2024-01-05T08:07:47.824Z,98.45
2024-01-05T08:10:16.653Z,98.32
2024-01-05T08:12:45.157Z,98.24
2024-01-05T08:15:14.240Z,98.20
2024-01-05T08:17:42.549Z,98.23
2024-01-05T08:20:12.327Z,97.37
2024-01-05T08:22:40.544Z,96.93
2024-01-05T08:25:09.466Z,96.63
2024-01-05T08:27:38.504Z,96.59
2024-01-05T08:30:08.986Z,95.95
2024-01-05T08:32:37.491Z,95.64
2024-01-05T08:35:07.744Z,95.72
2024-01-05T08:37:38.922Z,95.30
2024-01-05T08:40:09.171Z,94.99
2024-01-05T08:42:37.610Z,94.01
2024-01-05T08:45:06.824Z,92.93
2024-01-05T08:47:35.228Z,92.63
2024-01-05T08:50:03.667Z,91.83
2024-01-05T08:52:32.042Z,91.81
2024-01-05T08:55:00.262Z,91.94
2024-01-05T08:57:28.622Z,92.20
2024-01-05T08:59:57.004Z,92.22
2024-01-05T09:02:25.212Z,92.38
2024-01-05T09:04:53.478Z,92.28
2024-01-05T09:07:21.876Z,92.06
2024-01-05T09:09:50.080Z,91.30
2024-01-05T09:12:18.445Z,90.60
2024-01-05T09:14:46.730Z,90.83
2024-01-05T09:17:15.044Z,89.53
2024-01-05T09:19:43.761Z,89.01
2024-01-05T09:22:13.091Z,88.77
2024-01-05T09:24:41.562Z,88.90
2024-01-05T09:27:09.846Z,88.48
2024-01-05T09:29:38.451Z,87.41
2024-01-05T09:32:07.176Z,87.11
2024-01-05T09:34:35.594Z,84.60
2024-01-05T09:37:04.007Z,85.44
2024-01-05T09:39:32.573Z,85.50
2024-01-05T09:42:01.195Z,84.36
2024-01-05T09:44:31.248Z,84.41
2024-01-05T09:46:59.701Z,83.95
2024-01-05T09:49:28.366Z,83.12
2024-01-05T09:51:58.512Z,82.82
2024-01-05T09:54:26.899Z,82.45
2024-01-05T09:56:55.697Z,81.85
2024-01-05T09:59:26.382Z,82.68
2024-01-05T10:01:55.791Z,81.95
2024-01-05T10:04:24.925Z,80.54
2024-01-05T10:07:01.442Z,80.82
2024-01-05T10:09:31.065Z,80.30
2024-01-05T10:11:59.514Z,80.04
2024-01-05T10:14:29.019Z,79.70
2024-01-05T10:17:10.171Z,78.71
2024-01-05T10:19:40.992Z,78.85
2024-01-05T10:22:15.069Z,78.53
2024-01-05T10:24:44.064Z,77.73
2024-01-05T10:27:14.654Z,77.26
2024-01-05T10:29:45.649Z,77.14
2024-01-05T10:32:17.007Z,77.16
2024-01-05T10:34:50.730Z,74.39
2024-01-05T10:37:23.572Z,73.70
2024-01-05T10:39:55.800Z,72.89
2024-01-05T10:42:30.295Z,71.17
2024-01-05T10:44:59.979Z,70.10
2024-01-05T10:47:32.542Z,70.68
2024-01-05T10:50:01.797Z,70.65
2024-01-05T10:52:33.821Z,70.11
2024-01-05T10:55:06.063Z,70.49
2024-01-05T10:57:38.400Z,68.83
2024-01-05T11:00:07.633Z,69.56
2024-01-05T11:02:42.553Z,69.56
2024-01-05T11:05:13.531Z,68.57
2024-01-05T11:07:43.855Z,67.55
2024-01-05T11:10:40.128Z,67.97
2024-01-05T11:13:17.483Z,66.26
2024-01-05T11:16:26.848Z,64.98
2024-01-05T11:19:28.951Z,61.88
2024-01-05T11:22:09.544Z,61.83
2024-01-05T11:24:40.246Z,61.81
2024-01-05T11:27:47.852Z,62.15
2024-01-05T11:30:40.790Z,63.14
2024-01-05T11:33:10.662Z,63.36
2024-01-05T11:35:45.537Z,63.51
2024-01-05T11:38:28.076Z,61.46
2024-01-05T11:40:56.405Z,60.70
2024-01-05T11:43:31.648Z,59.95
2024-01-05T11:46:00.070Z,59.27
2024-01-05T11:48:38.736Z,58.89
2024-01-05T11:51:08.338Z,56.34
2024-01-05T11:53:37.281Z,54.51
2024-01-05T11:56:16.538Z,53.74
2024-01-05T11:58:47.936Z,52.81
2024-01-05T12:01:18.268Z,52.02
2024-01-05T12:03:46.716Z,52.01
2024-01-05T12:06:15.467Z,51.05
2024-01-05T12:08:44.306Z,51.00
2024-01-05T12:11:13.470Z,49.78
2024-01-05T12:13:42.011Z,48.45
2024-01-05T12:16:11.425Z,48.96
2024-01-05T12:18:50.225Z,48.30
2024-01-05T12:21:21.911Z,47.51
2024-01-05T12:23:56.501Z,47.29
2024-01-05T12:26:26.818Z,47.11
2024-01-05T12:28:55.808Z,47.36
2024-01-05T12:31:25.424Z,47.22
2024-01-05T12:33:54.626Z,46.73
2024-01-05T12:36:29.955Z,46.64
2024-01-05T12:39:13.149Z,46.94
2024-01-05T12:41:44.571Z,46.28
2024-01-05T12:44:16.258Z,46.03
2024-01-05T12:46:48.303Z,45.69
2024-01-05T12:49:25.287Z,45.52
2024-01-05T12:51:54.736Z,45.00
2024-01-05T12:54:23.887Z,44.75
2024-01-05T12:56:52.942Z,44.22
2024-01-05T12:59:22.735Z,44.71
2024-01-05T13:02:05.078Z,44.97
2024-01-05T13:04:40.628Z,45.15
2024-01-05T13:07:13.157Z,45.18
2024-01-05T13:09:42.280Z,44.48
2024-01-05T13:12:12.184Z,43.73
2024-01-05T13:14:41.553Z,43.29
2024-01-05T13:17:09.772Z,42.65
2024-01-05T13:19:40.961Z,43.15
2024-01-05T13:22:11.589Z,43.65
2024-01-05T13:24:44.299Z,44.75
2024-01-05T13:27:14.957Z,46.06
2024-01-05T13:29:43.171Z,47.42
2024-01-05T13:32:11.716Z,47.83
2024-01-05T13:34:40.101Z,47.72
2024-01-05T13:37:08.598Z,46.87
2024-01-05T13:39:40.728Z,46.86
2024-01-05T13:42:10.835Z,46.47
2024-01-05T13:44:39.277Z,46.42
2024-01-05T13:47:07.379Z,46.67
2024-01-05T13:49:35.747Z,47.16
2024-01-05T13:52:04.888Z,47.06
2024-01-05T13:54:35.570Z,47.51
2024-01-05T13:57:04.441Z,48.38
2024-01-05T13:59:35.320Z,50.20
2024-01-05T14:02:04.234Z,52.35
2024-01-05T14:04:32.663Z,53.70
2024-01-05T14:07:01.659Z,55.28
2024-01-05T14:09:30.016Z,56.88
2024-01-05T14:11:58.473Z,58.19
2024-01-05T14:14:26.739Z,59.35
2024-01-05T14:16:55.761Z,61.05
2024-01-05T14:19:25.167Z,62.71
2024-01-05T14:21:53.504Z,64.06
2024-01-05T14:24:21.738Z,65.98
2024-01-05T14:26:49.953Z,66.75
2024-01-05T14:29:19.067Z,67.49
2024-01-05T14:31:47.592Z,67.79
2024-01-05T14:34:16.152Z,67.94
2024-01-05T14:36:44.622Z,68.24
2024-01-05T14:39:13.183Z,68.42
2024-01-05T14:41:41.474Z,68.72
2024-01-05T14:44:09.810Z,69.70
2024-01-05T14:46:38.116Z,70.23
2024-01-05T14:49:07.107Z,70.64
2024-01-05T14:51:35.825Z,71.67
2024-01-05T14:54:04.226Z,72.07
2024-01-05T14:56:33.511Z,72.21
2024-01-05T14:59:02.339Z,72.69
2024-01-05T15:01:30.616Z,73.14
2024-01-05T15:03:58.960Z,73.12
2024-01-05T15:06:28.328Z,74.50
2024-01-05T15:08:56.640Z,74.34
2024-01-05T15:11:24.843Z,74.91
2024-01-05T15:13:53.161Z,74.38
2024-01-05T15:16:21.380Z,74.18
2024-01-05T15:18:49.844Z,74.83
2024-01-05T15:21:27.600Z,75.16
2024-01-05T15:23:55.985Z,75.43
2024-01-05T15:26:24.298Z,75.46
2024-01-05T15:28:52.516Z,75.49
2024-01-05T15:31:22.279Z,76.38
2024-01-05T15:33:53.290Z,75.97
2024-01-05T15:36:25.417Z,76.36
2024-01-05T15:38:54.127Z,76.17
2024-01-05T15:41:22.399Z,76.41
2024-01-05T15:43:57.352Z,76.42
2024-01-05T15:46:28.303Z,75.68
2024-01-05T15:48:59.489Z,76.15
2024-01-05T15:51:31.456Z,76.48
2024-01-05T15:54:01.335Z,76.52
2024-01-05T15:56:30.539Z,76.04
2024-01-05T15:58:58.774Z,76.09
2024-01-05T16:01:27.138Z,75.88
2024-01-05T16:03:55.845Z,76.76
2024-01-05T16:06:24.448Z,78.29
2024-01-05T16:08:52.747Z,77.78
2024-01-05T16:11:31.192Z,77.66
2024-01-05T16:14:00.779Z,78.48
2024-01-05T16:16:29.056Z,78.23
2024-01-05T16:18:57.371Z,79.00
2024-01-05T16:21:27.570Z,79.16
2024-01-05T16:23:57.512Z,79.87
2024-01-05T16:26:26.747Z,79.42
2024-01-05T16:28:55.471Z,79.91
2024-01-05T16:31:24.389Z,80.64
2024-01-05T16:33:53.081Z,81.39
2024-01-05T16:36:25.754Z,80.72
2024-01-05T16:38:54.055Z,80.16
2024-01-05T16:41:25.663Z,79.83
2024-01-05T16:43:56.691Z,80.10
2024-01-05T16:46:25.661Z,80.06
2024-01-05T16:48:55.107Z,80.16
2024-01-05T16:51:24.221Z,80.31
2024-01-05T16:53:52.709Z,80.26
2024-01-05T16:56:26.589Z,80.04
2024-01-05T16:58:57.332Z,79.90
2024-01-05T17:01:26.919Z,79.83
2024-01-05T17:03:56.879Z,79.39
2024-01-05T17:06:25.610Z,79.25
2024-01-05T17:08:54.571Z,79.11
2024-01-05T17:11:27.063Z,79.08
2024-01-05T17:13:57.900Z,79.35
2024-01-05T17:16:28.913Z,80.00
2024-01-05T17:19:00.783Z,80.89
2024-01-05T17:21:29.955Z,81.12
2024-01-05T17:23:58.256Z,81.50
2024-01-05T17:26:27.278Z,82.05
2024-01-05T17:28:55.811Z,80.43
2024-01-05T17:31:24.175Z,80.42
2024-01-05T17:33:52.656Z,80.92
2024-01-05T17:36:28.107Z,81.28
2024-01-05T17:38:57.815Z,81.18
2024-01-05T17:41:26.303Z,81.57
2024-01-05T17:43:54.569Z,81.84
2024-01-05T17:46:22.879Z,82.57
2024-01-05T17:48:51.350Z,83.09
2024-01-05T17:51:19.783Z,83.71
2024-01-05T17:53:49.141Z,83.75
2024-01-05T17:56:27.002Z,84.49
2024-01-05T17:58:55.323Z,85.31
2024-01-05T18:01:24.233Z,85.54
2024-01-05T18:03:52.662Z,85.11
2024-01-05T18:06:21.083Z,85.28
2024-01-05T18:08:49.358Z,86.53
2024-01-05T18:11:27.930Z,86.91
2024-01-05T18:13:56.591Z,87.28
2024-01-05T18:16:30.259Z,87.79
2024-01-05T18:18:58.830Z,88.09
2024-01-05T18:21:29.048Z,88.01
2024-01-05T18:24:01.207Z,88.32
2024-01-05T18:26:29.922Z,88.10
2024-01-05T18:29:01.409Z,88.11
2024-01-05T18:31:42.556Z,88.49
2024-01-05T18:34:11.102Z,88.03
2024-01-05T18:36:44.742Z,87.64
2024-01-05T18:39:13.017Z,89.00
2024-01-05T18:41:41.756Z,88.63
2024-01-05T18:44:14.956Z,88.50
2024-01-05T18:46:43.672Z,89.23
2024-01-05T18:49:13.103Z,88.82
2024-01-05T18:51:41.605Z,88.42
2024-01-05T18:54:09.982Z,88.54
2024-01-05T18:56:38.277Z,89.23
2024-01-05T18:59:06.592Z,89.38
2024-01-05T19:01:34.980Z,89.76
2024-01-05T19:04:03.846Z,89.90
2024-01-05T19:06:32.287Z,90.19
2024-01-05T19:09:01.092Z,89.92
2024-01-05T19:11:29.367Z,89.20
2024-01-05T19:13:57.522Z,89.79
2024-01-05T19:16:25.852Z,90.18
2024-01-05T19:18:54.284Z,90.08
2024-01-05T19:21:22.623Z,89.97
2024-01-05T19:23:50.909Z,91.41
2024-01-05T19:26:22.849Z,92.01
2024-01-05T19:28:51.064Z,92.16
2024-01-05T19:31:19.617Z,92.27
2024-01-05T19:33:47.992Z,92.67
2024-01-05T19:36:17.701Z,93.00
2024-01-05T19:38:45.947Z,92.57
2024-01-05T19:41:14.169Z,92.23
2024-01-05T19:43:42.386Z,91.85
2024-01-05T19:46:10.619Z,91.84
2024-01-05T19:48:39.066Z,91.93
2024-01-05T19:51:13.074Z,92.32
2024-01-05T19:53:44.605Z,92.48
2024-01-05T19:56:13.817Z,92.43
2024-01-05T19:58:43.190Z,92.75
2024-01-05T20:01:11.522Z,93.40
2024-01-05T20:03:40.171Z,93.48
2024-01-05T20:06:08.534Z,93.46
2024-01-05T20:08:36.834Z,93.01
2024-01-05T20:11:09.312Z,92.50
2024-01-05T20:13:37.986Z,92.76
2024-01-05T20:16:07.579Z,92.76
2024-01-05T20:18:35.935Z,92.84
2024-01-05T20:21:04.404Z,92.50
2024-01-05T20:23:32.975Z,92.49
2024-01-05T20:26:01.944Z,92.21
2024-01-05T20:28:31.019Z,92.83
2024-01-05T20:30:59.715Z,92.67
2024-01-05T20:33:29.811Z,93.00
2024-01-05T20:35:58.101Z,93.65
2024-01-05T20:38:26.351Z,94.00
2024-01-05T20:40:55.076Z,93.67
2024-01-05T20:43:23.765Z,93.72
2024-01-05T20:45:52.112Z,93.32
2024-01-05T20:48:20.419Z,93.87
2024-01-05T20:50:50.522Z,93.78
2024-01-05T20:53:19.147Z,93.59
2024-01-05T20:55:50.309Z,93.29
2024-01-05T20:58:18.910Z,93.59
2024-01-05T21:00:49.408Z,93.12
2024-01-05T21:03:19.132Z,92.75
2024-01-05T21:05:49.099Z,92.90
2024-01-05T21:08:17.300Z,93.27
2024-01-05T21:10:45.631Z,93.25
2024-01-05T21:13:13.858Z,93.92
2024-01-05T21:15:42.410Z,94.33
2024-01-05T21:18:11.003Z,94.60
2024-01-05T21:20:40.813Z,94.74
2024-01-05T21:23:09.031Z,95.28
2024-01-05T21:25:37.672Z,95.26
2024-01-05T21:28:06.780Z,95.37
2024-01-05T21:30:35.108Z,94.76
2024-01-05T21:33:04.942Z,94.14
2024-01-05T21:35:33.248Z,94.59
2024-01-05T21:38:02.372Z,94.65
2024-01-05T21:40:31.643Z,94.76
2024-01-05T21:43:00.214Z,95.91
2024-01-05T21:45:28.645Z,95.35
2024-01-05T21:47:57.799Z,95.13
2024-01-05T21:50:26.390Z,94.68
2024-01-05T21:52:54.810Z,95.04
2024-01-05T21:55:23.124Z,94.97
2024-01-05T21:57:51.548Z,94.73
2024-01-05T22:00:20.086Z,94.10
2024-01-05T22:02:49.007Z,94.47
2024-01-05T22:05:17.108Z,94.91
2024-01-05T22:07:45.325Z,95.16
2024-01-05T22:10:13.861Z,95.51
2024-01-05T22:12:42.108Z,95.63
2024-01-05T22:15:10.654Z,96.10
2024-01-05T22:17:39.004Z,95.63
2024-01-05T22:20:08.802Z,94.40
2024-01-05T22:22:37.084Z,94.68
2024-01-05T22:25:06.719Z,95.46
2024-01-05T22:27:36.032Z,95.82
2024-01-05T22:30:05.319Z,96.08
2024-01-05T22:32:33.603Z,96.41
2024-01-05T22:35:02.122Z,96.60
2024-01-05T22:37:30.492Z,96.82
2024-01-05T22:39:58.715Z,97.23
2024-01-05T22:42:27.054Z,97.35
2024-01-05T22:44:55.217Z,96.87
2024-01-05T22:47:23.621Z,97.08
2024-01-05T22:49:52.162Z,97.01
2024-01-05T22:52:20.609Z,96.76
2024-01-05T22:54:48.955Z,97.13
2024-01-05T22:57:18.965Z,97.07
2024-01-05T22:59:47.301Z,96.58
2024-01-05T23:02:15.709Z,97.04
2024-01-05T23:04:43.946Z,97.71
2024-01-05T23:07:12.202Z,97.44
2024-01-05T23:09:40.750Z,97.20
2024-01-05T23:12:09.438Z,97.13
2024-01-05T23:14:37.610Z,97.10
2024-01-05T23:17:05.827Z,97.35
2024-01-05T23:19:34.148Z,97.54
2024-01-05T23:22:02.475Z,97.56
2024-01-05T23:24:30.729Z,97.45
2024-01-05T23:26:59.008Z,97.40
2024-01-05T23:29:27.442Z,97.74
2024-01-05T23:31:56.197Z,97.06
2024-01-05T23:34:24.530Z,96.85
2024-01-05T23:36:53.326Z,97.16
2024-01-05T23:39:21.768Z,97.15
2024-01-05T23:41:50.035Z,97.48
2024-01-05T23:44:18.361Z,98.39
2024-01-05T23:46:46.893Z,98.63
2024-01-05T23:49:15.193Z,99.10
2024-01-05T23:51:43.555Z,99.27
2024-01-05T23:54:11.860Z,99.26
2024-01-05T23:56:40.165Z,98.51
2024-01-05T23:59:08.584Z,98.14
